sensor_id;sensor_type;location;lat;lon;timestamp;P1;durP1;ratioP1;P2;durP2;ratioP2
26598;SDS011;14240;51.064;16.612;2023-05-24T00:00:56;3.97;;;2.20;;
26598;SDS011;14240;51.064;16.612;2023-05-24T00:03:22;3.50;;;2.58;;
26598;SDS011;14240;51.064;16.612;2023-05-24T00:05:47;2.42;;;2.20;;
26598;SDS011;14240;51.064;16.612;2023-05-24T00:08:13;2.42;;;2.22;;
26598;SDS011;14240;51.064;16.612;2023-05-24T00:10:40;2.38;;;2.13;;
26598;SDS011;14240;51.064;16.612;2023-05-24T00:13:06;3.75;;;2.40;;
26598;SDS011;14240;51.064;16.612;2023-05-24T00:15:32;3.78;;;2.75;;
26598;SDS011;14240;51.064;16.612;2023-05-24T00:17:58;3.78;;;2.05;;
26598;SDS011;14240;51.064;16.612;2023-05-24T00:20:23;1.63;;;1.52;;
26598;SDS011;14240;51.064;16.612;2023-05-24T00:22:49;4.32;;;1.67;;
26598;SDS011;14240;51.064;16.612;2023-05-24T00:25:15;4.40;;;1.92;;
26598;SDS011;14240;51.064;16.612;2023-05-24T00:27:41;1.98;;;1.77;;
26598;SDS011;14240;51.064;16.612;2023-05-24T00:30:07;1.63;;;1.52;;
26598;SDS011;14240;51.064;16.612;2023-05-24T00:32:33;1.95;;;1.50;;
26598;SDS011;14240;51.064;16.612;2023-05-24T00:34:58;3.13;;;1.60;;
26598;SDS011;14240;51.064;16.612;2023-05-24T00:37:24;4.05;;;2.08;;
26598;SDS011;14240;51.064;16.612;2023-05-24T00:39:51;2.05;;;1.75;;
26598;SDS011;14240;51.064;16.612;2023-05-24T00:42:17;2.83;;;1.88;;
26598;SDS011;14240;51.064;16.612;2023-05-24T00:44:42;2.03;;;1.83;;
26598;SDS011;14240;51.064;16.612;2023-05-24T00:47:08;3.30;;;1.92;;
26598;SDS011;14240;51.064;16.612;2023-05-24T00:49:34;4.88;;;2.55;;
26598;SDS011;14240;51.064;16.612;2023-05-24T00:52:02;3.63;;;2.53;;
26598;SDS011;14240;51.064;16.612;2023-05-24T00:54:29;4.10;;;2.55;;
26598;SDS011;14240;51.064;16.612;2023-05-24T00:56:55;4.45;;;2.55;;
26598;SDS011;14240;51.064;16.612;2023-05-24T00:59:22;4.53;;;2.97;;
26598;SDS011;14240;51.064;16.612;2023-05-24T01:01:48;5.73;;;3.53;;
26598;SDS011;14240;51.064;16.612;2023-05-24T01:04:13;9.35;;;4.60;;
26598;SDS011;14240;51.064;16.612;2023-05-24T01:06:50;10.18;;;4.40;;
26598;SDS011;14240;51.064;16.612;2023-05-24T01:09:32;9.00;;;5.22;;
26598;SDS011;14240;51.064;16.612;2023-05-24T01:12:25;8.63;;;5.35;;
26598;SDS011;14240;51.064;16.612;2023-05-24T01:14:57;7.78;;;5.60;;
26598;SDS011;14240;51.064;16.612;2023-05-24T01:17:28;8.98;;;5.78;;
26598;SDS011;14240;51.064;16.612;2023-05-24T01:20:01;15.87;;;6.83;;
26598;SDS011;14240;51.064;16.612;2023-05-24T01:25:06;12.77;;;7.40;;
26598;SDS011;14240;51.064;16.612;2023-05-24T01:27:42;16.58;;;7.53;;
26598;SDS011;14240;51.064;16.612;2023-05-24T01:30:09;14.30;;;7.05;;
26598;SDS011;14240;51.064;16.612;2023-05-24T01:32:35;13.20;;;6.25;;
26598;SDS011;14240;51.064;16.612;2023-05-24T01:35:02;11.30;;;6.63;;
26598;SDS011;14240;51.064;16.612;2023-05-24T01:37:28;19.23;;;6.63;;
26598;SDS011;14240;51.064;16.612;2023-05-24T01:39:54;16.58;;;7.25;;
26598;SDS011;14240;51.064;16.612;2023-05-24T01:45:03;11.65;;;5.63;;
26598;SDS011;14240;51.064;16.612;2023-05-24T01:50:39;13.57;;;5.63;;
26598;SDS011;14240;51.064;16.612;2023-05-24T01:53:15;15.75;;;6.03;;
26598;SDS011;14240;51.064;16.612;2023-05-24T01:55:43;13.82;;;6.38;;
26598;SDS011;14240;51.064;16.612;2023-05-24T01:58:12;13.93;;;6.25;;
26598;SDS011;14240;51.064;16.612;2023-05-24T02:00:38;13.32;;;5.70;;
26598;SDS011;14240;51.064;16.612;2023-05-24T02:03:05;12.98;;;5.63;;
26598;SDS011;14240;51.064;16.612;2023-05-24T02:05:31;15.93;;;6.13;;
26598;SDS011;14240;51.064;16.612;2023-05-24T02:07:57;11.40;;;5.82;;
26598;SDS011;14240;51.064;16.612;2023-05-24T02:10:23;16.05;;;6.22;;
26598;SDS011;14240;51.064;16.612;2023-05-24T02:12:49;11.07;;;5.90;;
26598;SDS011;14240;51.064;16.612;2023-05-24T02:15:15;17.20;;;6.18;;
26598;SDS011;14240;51.064;16.612;2023-05-24T02:17:41;12.50;;;5.25;;
26598;SDS011;14240;51.064;16.612;2023-05-24T02:20:07;15.35;;;7.13;;
26598;SDS011;14240;51.064;16.612;2023-05-24T02:22:33;13.60;;;6.35;;
26598;SDS011;14240;51.064;16.612;2023-05-24T02:24:59;15.57;;;6.18;;
26598;SDS011;14240;51.064;16.612;2023-05-24T02:27:25;13.70;;;6.05;;
26598;SDS011;14240;51.064;16.612;2023-05-24T02:29:51;14.00;;;5.85;;
26598;SDS011;14240;51.064;16.612;2023-05-24T02:32:17;11.32;;;5.97;;
26598;SDS011;14240;51.064;16.612;2023-05-24T02:34:42;14.60;;;6.10;;
26598;SDS011;14240;51.064;16.612;2023-05-24T02:37:08;9.15;;;5.90;;
26598;SDS011;14240;51.064;16.612;2023-05-24T02:39:38;11.10;;;5.60;;
26598;SDS011;14240;51.064;16.612;2023-05-24T02:42:05;15.57;;;5.93;;
26598;SDS011;14240;51.064;16.612;2023-05-24T02:44:32;8.53;;;4.83;;
26598;SDS011;14240;51.064;16.612;2023-05-24T02:46:58;8.90;;;5.50;;
26598;SDS011;14240;51.064;16.612;2023-05-24T02:49:24;14.07;;;5.18;;
26598;SDS011;14240;51.064;16.612;2023-05-24T02:51:50;8.73;;;4.88;;
26598;SDS011;14240;51.064;16.612;2023-05-24T02:54:17;11.20;;;5.20;;
26598;SDS011;14240;51.064;16.612;2023-05-24T02:56:42;7.63;;;4.65;;
26598;SDS011;14240;51.064;16.612;2023-05-24T02:59:08;9.88;;;4.93;;
26598;SDS011;14240;51.064;16.612;2023-05-24T03:01:35;11.25;;;5.25;;
26598;SDS011;14240;51.064;16.612;2023-05-24T03:04:01;11.20;;;5.38;;
26598;SDS011;14240;51.064;16.612;2023-05-24T03:06:26;11.05;;;4.93;;
26598;SDS011;14240;51.064;16.612;2023-05-24T03:08:52;10.00;;;4.60;;
26598;SDS011;14240;51.064;16.612;2023-05-24T03:11:18;13.25;;;4.65;;
26598;SDS011;14240;51.064;16.612;2023-05-24T03:13:47;10.48;;;5.13;;
26598;SDS011;14240;51.064;16.612;2023-05-24T03:16:13;7.35;;;4.55;;
26598;SDS011;14240;51.064;16.612;2023-05-24T03:18:40;12.07;;;5.18;;
26598;SDS011;14240;51.064;16.612;2023-05-24T03:21:06;16.65;;;6.38;;
26598;SDS011;14240;51.064;16.612;2023-05-24T03:23:32;11.68;;;5.90;;
26598;SDS011;14240;51.064;16.612;2023-05-24T03:25:58;11.25;;;5.68;;
26598;SDS011;14240;51.064;16.612;2023-05-24T03:28:23;12.50;;;6.15;;
26598;SDS011;14240;51.064;16.612;2023-05-24T03:30:49;11.77;;;6.45;;
26598;SDS011;14240;51.064;16.612;2023-05-24T03:33:15;10.88;;;5.30;;
26598;SDS011;14240;51.064;16.612;2023-05-24T03:35:41;10.35;;;6.20;;
26598;SDS011;14240;51.064;16.612;2023-05-24T03:38:08;10.80;;;5.50;;
26598;SDS011;14240;51.064;16.612;2023-05-24T03:41:15;12.68;;;6.05;;
26598;SDS011;14240;51.064;16.612;2023-05-24T03:43:41;11.10;;;5.68;;
26598;SDS011;14240;51.064;16.612;2023-05-24T03:46:07;11.32;;;5.03;;
26598;SDS011;14240;51.064;16.612;2023-05-24T03:48:33;7.95;;;5.07;;
26598;SDS011;14240;51.064;16.612;2023-05-24T03:50:58;9.25;;;4.60;;
26598;SDS011;14240;51.064;16.612;2023-05-24T03:53:24;9.48;;;5.43;;
26598;SDS011;14240;51.064;16.612;2023-05-24T03:55:50;9.85;;;5.88;;
26598;SDS011;14240;51.064;16.612;2023-05-24T03:58:15;9.77;;;5.85;;
26598;SDS011;14240;51.064;16.612;2023-05-24T04:00:41;13.75;;;6.57;;
26598;SDS011;14240;51.064;16.612;2023-05-24T04:03:07;9.50;;;6.40;;
26598;SDS011;14240;51.064;16.612;2023-05-24T04:05:33;13.38;;;7.03;;
26598;SDS011;14240;51.064;16.612;2023-05-24T04:07:59;16.05;;;6.55;;
26598;SDS011;14240;51.064;16.612;2023-05-24T04:10:25;14.57;;;6.53;;
26598;SDS011;14240;51.064;16.612;2023-05-24T04:12:51;16.15;;;6.57;;
26598;SDS011;14240;51.064;16.612;2023-05-24T04:15:17;13.25;;;7.53;;
26598;SDS011;14240;51.064;16.612;2023-05-24T04:17:43;14.32;;;7.55;;
26598;SDS011;14240;51.064;16.612;2023-05-24T04:22:37;20.17;;;9.23;;
26598;SDS011;14240;51.064;16.612;2023-05-24T04:25:03;18.17;;;7.93;;
26598;SDS011;14240;51.064;16.612;2023-05-24T04:27:30;15.67;;;7.50;;
26598;SDS011;14240;51.064;16.612;2023-05-24T04:29:56;22.83;;;8.48;;
26598;SDS011;14240;51.064;16.612;2023-05-24T04:32:22;18.02;;;7.95;;
26598;SDS011;14240;51.064;16.612;2023-05-24T04:34:49;15.88;;;8.20;;
26598;SDS011;14240;51.064;16.612;2023-05-24T04:37:25;20.95;;;9.05;;
26598;SDS011;14240;51.064;16.612;2023-05-24T04:39:51;18.80;;;8.60;;
26598;SDS011;14240;51.064;16.612;2023-05-24T04:42:17;15.80;;;9.35;;
26598;SDS011;14240;51.064;16.612;2023-05-24T04:44:43;13.27;;;8.88;;
26598;SDS011;14240;51.064;16.612;2023-05-24T04:47:09;17.70;;;9.25;;
26598;SDS011;14240;51.064;16.612;2023-05-24T04:49:34;21.30;;;10.40;;
26598;SDS011;14240;51.064;16.612;2023-05-24T04:52:00;21.60;;;11.68;;
26598;SDS011;14240;51.064;16.612;2023-05-24T04:54:26;17.10;;;11.43;;
26598;SDS011;14240;51.064;16.612;2023-05-24T04:56:52;29.73;;;10.38;;
26598;SDS011;14240;51.064;16.612;2023-05-24T04:59:17;20.17;;;9.55;;
26598;SDS011;14240;51.064;16.612;2023-05-24T05:01:43;19.35;;;8.57;;
26598;SDS011;14240;51.064;16.612;2023-05-24T05:04:09;15.25;;;8.85;;
26598;SDS011;14240;51.064;16.612;2023-05-24T05:06:34;17.88;;;7.82;;
26598;SDS011;14240;51.064;16.612;2023-05-24T05:09:04;15.18;;;7.90;;
26598;SDS011;14240;51.064;16.612;2023-05-24T05:11:34;18.45;;;9.13;;
26598;SDS011;14240;51.064;16.612;2023-05-24T05:14:01;17.40;;;9.88;;
26598;SDS011;14240;51.064;16.612;2023-05-24T05:16:26;16.23;;;8.25;;
26598;SDS011;14240;51.064;16.612;2023-05-24T05:18:52;16.77;;;8.40;;
26598;SDS011;14240;51.064;16.612;2023-05-24T05:21:18;11.50;;;7.90;;
26598;SDS011;14240;51.064;16.612;2023-05-24T05:23:44;18.23;;;8.90;;
26598;SDS011;14240;51.064;16.612;2023-05-24T05:26:10;13.23;;;8.93;;
26598;SDS011;14240;51.064;16.612;2023-05-24T05:28:36;17.52;;;8.38;;
26598;SDS011;14240;51.064;16.612;2023-05-24T05:31:02;20.65;;;8.27;;
26598;SDS011;14240;51.064;16.612;2023-05-24T05:33:30;14.95;;;8.70;;
26598;SDS011;14240;51.064;16.612;2023-05-24T05:35:56;23.10;;;11.38;;
26598;SDS011;14240;51.064;16.612;2023-05-24T05:38:22;27.55;;;13.20;;
26598;SDS011;14240;51.064;16.612;2023-05-24T05:40:47;24.10;;;11.32;;
26598;SDS011;14240;51.064;16.612;2023-05-24T05:43:13;17.75;;;8.68;;
26598;SDS011;14240;51.064;16.612;2023-05-24T05:45:39;16.35;;;6.78;;
26598;SDS011;14240;51.064;16.612;2023-05-24T05:48:05;18.45;;;7.53;;
26598;SDS011;14240;51.064;16.612;2023-05-24T05:50:30;21.83;;;6.60;;
26598;SDS011;14240;51.064;16.612;2023-05-24T05:52:56;16.63;;;7.25;;
26598;SDS011;14240;51.064;16.612;2023-05-24T05:55:22;17.42;;;7.38;;
26598;SDS011;14240;51.064;16.612;2023-05-24T05:57:48;14.52;;;6.85;;
26598;SDS011;14240;51.064;16.612;2023-05-24T06:00:14;14.50;;;6.13;;
26598;SDS011;14240;51.064;16.612;2023-05-24T06:02:41;17.55;;;7.20;;
26598;SDS011;14240;51.064;16.612;2023-05-24T06:05:06;19.23;;;8.38;;
26598;SDS011;14240;51.064;16.612;2023-05-24T06:07:33;24.98;;;11.02;;
26598;SDS011;14240;51.064;16.612;2023-05-24T06:10:04;19.33;;;10.40;;
26598;SDS011;14240;51.064;16.612;2023-05-24T06:12:31;28.05;;;13.07;;
26598;SDS011;14240;51.064;16.612;2023-05-24T06:14:56;26.13;;;13.40;;
26598;SDS011;14240;51.064;16.612;2023-05-24T06:17:23;25.98;;;13.20;;
26598;SDS011;14240;51.064;16.612;2023-05-24T06:19:49;25.75;;;13.68;;
26598;SDS011;14240;51.064;16.612;2023-05-24T06:22:17;25.63;;;14.75;;
26598;SDS011;14240;51.064;16.612;2023-05-24T06:24:44;30.35;;;14.98;;
26598;SDS011;14240;51.064;16.612;2023-05-24T06:27:10;27.45;;;14.35;;
26598;SDS011;14240;51.064;16.612;2023-05-24T06:29:35;28.40;;;14.32;;
26598;SDS011;14240;51.064;16.612;2023-05-24T06:32:02;26.35;;;13.80;;
26598;SDS011;14240;51.064;16.612;2023-05-24T06:34:28;34.85;;;14.57;;
26598;SDS011;14240;51.064;16.612;2023-05-24T06:36:54;42.70;;;21.50;;
26598;SDS011;14240;51.064;16.612;2023-05-24T06:39:19;36.00;;;16.25;;
26598;SDS011;14240;51.064;16.612;2023-05-24T06:41:45;37.38;;;19.30;;
26598;SDS011;14240;51.064;16.612;2023-05-24T06:44:11;31.52;;;13.93;;
26598;SDS011;14240;51.064;16.612;2023-05-24T06:46:37;32.47;;;15.63;;
26598;SDS011;14240;51.064;16.612;2023-05-24T06:49:03;34.75;;;17.35;;
26598;SDS011;14240;51.064;16.612;2023-05-24T06:51:29;32.80;;;17.05;;
26598;SDS011;14240;51.064;16.612;2023-05-24T06:53:57;32.03;;;16.35;;
26598;SDS011;14240;51.064;16.612;2023-05-24T06:56:23;31.95;;;13.93;;
26598;SDS011;14240;51.064;16.612;2023-05-24T06:58:49;32.10;;;13.90;;
26598;SDS011;14240;51.064;16.612;2023-05-24T07:01:15;25.63;;;13.77;;
26598;SDS011;14240;51.064;16.612;2023-05-24T07:03:42;32.07;;;14.07;;
26598;SDS011;14240;51.064;16.612;2023-05-24T07:06:08;31.23;;;14.75;;
26598;SDS011;14240;51.064;16.612;2023-05-24T07:08:38;33.50;;;13.48;;
26598;SDS011;14240;51.064;16.612;2023-05-24T07:11:06;32.08;;;14.68;;
26598;SDS011;14240;51.064;16.612;2023-05-24T07:13:33;28.10;;;14.43;;
26598;SDS011;14240;51.064;16.612;2023-05-24T07:15:59;28.13;;;14.18;;
26598;SDS011;14240;51.064;16.612;2023-05-24T07:18:25;22.92;;;13.18;;
26598;SDS011;14240;51.064;16.612;2023-05-24T07:20:50;28.10;;;13.02;;
26598;SDS011;14240;51.064;16.612;2023-05-24T07:23:16;26.63;;;12.00;;
26598;SDS011;14240;51.064;16.612;2023-05-24T07:25:42;23.17;;;11.70;;
26598;SDS011;14240;51.064;16.612;2023-05-24T07:28:07;26.58;;;10.70;;
26598;SDS011;14240;51.064;16.612;2023-05-24T07:30:33;26.48;;;11.82;;
26598;SDS011;14240;51.064;16.612;2023-05-24T07:32:59;24.52;;;13.20;;
26598;SDS011;14240;51.064;16.612;2023-05-24T07:35:25;25.88;;;13.35;;
26598;SDS011;14240;51.064;16.612;2023-05-24T07:37:53;30.98;;;14.70;;
26598;SDS011;14240;51.064;16.612;2023-05-24T07:40:18;27.15;;;13.63;;
26598;SDS011;14240;51.064;16.612;2023-05-24T07:42:45;34.95;;;15.80;;
26598;SDS011;14240;51.064;16.612;2023-05-24T07:45:11;31.70;;;15.32;;
26598;SDS011;14240;51.064;16.612;2023-05-24T07:47:38;29.40;;;15.07;;
26598;SDS011;14240;51.064;16.612;2023-05-24T07:50:04;32.17;;;15.48;;
26598;SDS011;14240;51.064;16.612;2023-05-24T07:52:30;30.75;;;14.57;;
26598;SDS011;14240;51.064;16.612;2023-05-24T07:54:55;24.23;;;11.38;;
26598;SDS011;14240;51.064;16.612;2023-05-24T07:57:21;24.95;;;11.73;;
26598;SDS011;14240;51.064;16.612;2023-05-24T07:59:47;29.00;;;12.57;;
26598;SDS011;14240;51.064;16.612;2023-05-24T08:02:13;25.90;;;14.10;;
26598;SDS011;14240;51.064;16.612;2023-05-24T08:04:40;32.97;;;13.88;;
26598;SDS011;14240;51.064;16.612;2023-05-24T08:07:07;26.50;;;14.65;;
26598;SDS011;14240;51.064;16.612;2023-05-24T08:09:33;35.22;;;16.25;;
26598;SDS011;14240;51.064;16.612;2023-05-24T08:12:03;36.35;;;17.02;;
26598;SDS011;14240;51.064;16.612;2023-05-24T08:14:30;26.25;;;17.30;;
26598;SDS011;14240;51.064;16.612;2023-05-24T08:16:56;34.17;;;16.58;;
26598;SDS011;14240;51.064;16.612;2023-05-24T08:19:24;29.80;;;16.15;;
26598;SDS011;14240;51.064;16.612;2023-05-24T08:21:51;25.65;;;15.02;;
26598;SDS011;14240;51.064;16.612;2023-05-24T08:24:18;24.20;;;13.65;;
26598;SDS011;14240;51.064;16.612;2023-05-24T08:26:44;22.88;;;13.02;;
26598;SDS011;14240;51.064;16.612;2023-05-24T08:29:10;26.23;;;13.77;;
26598;SDS011;14240;51.064;16.612;2023-05-24T08:31:36;24.20;;;12.38;;
26598;SDS011;14240;51.064;16.612;2023-05-24T08:34:02;29.02;;;12.82;;
26598;SDS011;14240;51.064;16.612;2023-05-24T08:36:29;21.25;;;11.02;;
26598;SDS011;14240;51.064;16.612;2023-05-24T08:38:55;20.15;;;11.98;;
26598;SDS011;14240;51.064;16.612;2023-05-24T08:41:20;22.15;;;10.68;;
26598;SDS011;14240;51.064;16.612;2023-05-24T08:43:46;26.85;;;13.73;;
26598;SDS011;14240;51.064;16.612;2023-05-24T08:46:13;23.45;;;11.75;;
26598;SDS011;14240;51.064;16.612;2023-05-24T08:48:45;34.20;;;11.20;;
26598;SDS011;14240;51.064;16.612;2023-05-24T08:51:15;22.77;;;12.18;;
26598;SDS011;14240;51.064;16.612;2023-05-24T08:53:43;19.27;;;9.48;;
26598;SDS011;14240;51.064;16.612;2023-05-24T08:56:13;20.17;;;8.50;;
26598;SDS011;14240;51.064;16.612;2023-05-24T08:58:42;17.80;;;8.43;;
26598;SDS011;14240;51.064;16.612;2023-05-24T09:01:10;20.67;;;7.70;;
26598;SDS011;14240;51.064;16.612;2023-05-24T09:03:37;17.13;;;8.80;;
26598;SDS011;14240;51.064;16.612;2023-05-24T09:06:08;18.35;;;8.57;;
26598;SDS011;14240;51.064;16.612;2023-05-24T09:08:35;16.48;;;8.00;;
26598;SDS011;14240;51.064;16.612;2023-05-24T09:11:02;24.30;;;9.43;;
26598;SDS011;14240;51.064;16.612;2023-05-24T09:13:31;19.70;;;9.02;;
26598;SDS011;14240;51.064;16.612;2023-05-24T09:16:00;21.83;;;9.93;;
26598;SDS011;14240;51.064;16.612;2023-05-24T09:18:26;21.58;;;8.73;;
26598;SDS011;14240;51.064;16.612;2023-05-24T09:20:52;17.98;;;8.90;;
26598;SDS011;14240;51.064;16.612;2023-05-24T09:23:18;19.63;;;8.70;;
26598;SDS011;14240;51.064;16.612;2023-05-24T09:25:44;19.27;;;8.43;;
26598;SDS011;14240;51.064;16.612;2023-05-24T09:28:14;24.30;;;9.15;;
26598;SDS011;14240;51.064;16.612;2023-05-24T09:30:45;18.02;;;9.32;;
26598;SDS011;14240;51.064;16.612;2023-05-24T09:33:22;25.38;;;8.50;;
26598;SDS011;14240;51.064;16.612;2023-05-24T09:36:00;17.67;;;7.35;;
26598;SDS011;14240;51.064;16.612;2023-05-24T09:41:00;15.20;;;7.20;;
26598;SDS011;14240;51.064;16.612;2023-05-24T09:43:31;17.00;;;6.53;;
26598;SDS011;14240;51.064;16.612;2023-05-24T09:46:00;21.35;;;7.65;;
26598;SDS011;14240;51.064;16.612;2023-05-24T09:48:27;13.73;;;7.28;;
26598;SDS011;14240;51.064;16.612;2023-05-24T09:51:03;13.25;;;7.10;;
26598;SDS011;14240;51.064;16.612;2023-05-24T09:53:31;18.48;;;7.05;;
26598;SDS011;14240;51.064;16.612;2023-05-24T09:58:31;22.00;;;7.45;;
26598;SDS011;14240;51.064;16.612;2023-05-24T10:01:07;24.45;;;7.63;;
26598;SDS011;14240;51.064;16.612;2023-05-24T10:03:55;16.30;;;7.50;;
26598;SDS011;14240;51.064;16.612;2023-05-24T10:06:22;15.25;;;6.90;;
26598;SDS011;14240;51.064;16.612;2023-05-24T10:08:49;16.48;;;6.13;;
26598;SDS011;14240;51.064;16.612;2023-05-24T10:11:16;13.02;;;5.57;;
26598;SDS011;14240;51.064;16.612;2023-05-24T10:13:45;17.58;;;6.35;;
26598;SDS011;14240;51.064;16.612;2023-05-24T10:16:12;22.58;;;6.93;;
26598;SDS011;14240;51.064;16.612;2023-05-24T10:18:38;21.58;;;6.38;;
26598;SDS011;14240;51.064;16.612;2023-05-24T10:21:05;16.90;;;7.63;;
26598;SDS011;14240;51.064;16.612;2023-05-24T10:23:37;11.90;;;6.03;;
26598;SDS011;14240;51.064;16.612;2023-05-24T10:26:04;15.93;;;6.68;;
26598;SDS011;14240;51.064;16.612;2023-05-24T10:28:45;15.07;;;6.05;;
26598;SDS011;14240;51.064;16.612;2023-05-24T10:31:17;18.45;;;6.13;;
26598;SDS011;14240;51.064;16.612;2023-05-24T10:33:55;17.50;;;6.78;;
26598;SDS011;14240;51.064;16.612;2023-05-24T10:36:24;17.33;;;6.47;;
26598;SDS011;14240;51.064;16.612;2023-05-24T10:38:50;15.05;;;5.65;;
26598;SDS011;14240;51.064;16.612;2023-05-24T10:41:17;16.30;;;5.70;;
26598;SDS011;14240;51.064;16.612;2023-05-24T10:43:44;13.23;;;5.25;;
26598;SDS011;14240;51.064;16.612;2023-05-24T10:46:14;17.45;;;5.70;;
26598;SDS011;14240;51.064;16.612;2023-05-24T10:48:40;13.98;;;6.10;;
26598;SDS011;14240;51.064;16.612;2023-05-24T10:53:57;12.82;;;4.65;;
26598;SDS011;14240;51.064;16.612;2023-05-24T10:56:38;14.35;;;5.40;;
26598;SDS011;14240;51.064;16.612;2023-05-24T11:01:57;13.65;;;5.35;;
26598;SDS011;14240;51.064;16.612;2023-05-24T11:04:32;15.63;;;4.78;;
26598;SDS011;14240;51.064;16.612;2023-05-24T11:07:05;16.55;;;5.50;;
26598;SDS011;14240;51.064;16.612;2023-05-24T11:09:36;9.60;;;4.50;;
26598;SDS011;14240;51.064;16.612;2023-05-24T11:12:09;11.15;;;5.00;;
26598;SDS011;14240;51.064;16.612;2023-05-24T11:14:40;11.85;;;4.93;;
26598;SDS011;14240;51.064;16.612;2023-05-24T11:17:11;12.68;;;5.00;;
26598;SDS011;14240;51.064;16.612;2023-05-24T11:19:44;11.88;;;4.40;;
26598;SDS011;14240;51.064;16.612;2023-05-24T11:22:12;11.75;;;4.28;;
26598;SDS011;14240;51.064;16.612;2023-05-24T11:24:42;13.37;;;4.50;;
26598;SDS011;14240;51.064;16.612;2023-05-24T11:27:10;8.63;;;3.88;;
26598;SDS011;14240;51.064;16.612;2023-05-24T11:29:43;9.68;;;4.80;;
26598;SDS011;14240;51.064;16.612;2023-05-24T11:32:14;9.80;;;4.80;;
26598;SDS011;14240;51.064;16.612;2023-05-24T11:34:40;9.20;;;3.92;;
26598;SDS011;14240;51.064;16.612;2023-05-24T11:37:09;10.55;;;4.32;;
26598;SDS011;14240;51.064;16.612;2023-05-24T11:39:35;13.27;;;3.75;;
26598;SDS011;14240;51.064;16.612;2023-05-24T11:42:05;10.10;;;3.80;;
26598;SDS011;14240;51.064;16.612;2023-05-24T11:44:32;10.25;;;4.10;;
26598;SDS011;14240;51.064;16.612;2023-05-24T11:46:59;11.40;;;4.00;;
26598;SDS011;14240;51.064;16.612;2023-05-24T11:49:26;8.10;;;4.30;;
26598;SDS011;14240;51.064;16.612;2023-05-24T11:51:53;11.13;;;4.30;;
26598;SDS011;14240;51.064;16.612;2023-05-24T11:54:22;12.32;;;4.35;;
26598;SDS011;14240;51.064;16.612;2023-05-24T11:56:49;14.20;;;4.80;;
26598;SDS011;14240;51.064;16.612;2023-05-24T11:59:16;11.87;;;4.47;;
26598;SDS011;14240;51.064;16.612;2023-05-24T12:01:46;11.60;;;5.28;;
26598;SDS011;14240;51.064;16.612;2023-05-24T12:04:12;13.55;;;5.20;;
26598;SDS011;14240;51.064;16.612;2023-05-24T12:06:39;9.70;;;5.05;;
26598;SDS011;14240;51.064;16.612;2023-05-24T12:11:44;10.05;;;3.47;;
26598;SDS011;14240;51.064;16.612;2023-05-24T12:14:32;13.00;;;4.60;;
26598;SDS011;14240;51.064;16.612;2023-05-24T12:16:59;11.18;;;5.35;;
26598;SDS011;14240;51.064;16.612;2023-05-24T12:19:28;9.95;;;4.95;;
26598;SDS011;14240;51.064;16.612;2023-05-24T12:21:58;7.38;;;3.92;;
26598;SDS011;14240;51.064;16.612;2023-05-24T12:24:25;10.30;;;4.20;;
26598;SDS011;14240;51.064;16.612;2023-05-24T12:26:56;10.35;;;4.78;;
26598;SDS011;14240;51.064;16.612;2023-05-24T12:29:25;6.88;;;3.90;;
26598;SDS011;14240;51.064;16.612;2023-05-24T12:31:51;9.70;;;4.50;;
26598;SDS011;14240;51.064;16.612;2023-05-24T12:34:18;12.15;;;4.80;;
26598;SDS011;14240;51.064;16.612;2023-05-24T12:36:44;12.10;;;4.57;;
26598;SDS011;14240;51.064;16.612;2023-05-24T12:39:15;9.38;;;4.10;;
26598;SDS011;14240;51.064;16.612;2023-05-24T12:41:48;11.40;;;4.60;;
26598;SDS011;14240;51.064;16.612;2023-05-24T12:44:25;11.15;;;4.07;;
26598;SDS011;14240;51.064;16.612;2023-05-24T12:46:52;15.40;;;5.28;;
26598;SDS011;14240;51.064;16.612;2023-05-24T12:49:19;11.43;;;4.45;;
26598;SDS011;14240;51.064;16.612;2023-05-24T12:51:48;11.93;;;5.20;;
26598;SDS011;14240;51.064;16.612;2023-05-24T12:54:17;16.77;;;5.18;;
26598;SDS011;14240;51.064;16.612;2023-05-24T12:56:43;11.00;;;5.18;;
26598;SDS011;14240;51.064;16.612;2023-05-24T12:59:09;12.50;;;5.25;;
26598;SDS011;14240;51.064;16.612;2023-05-24T13:01:36;14.88;;;5.40;;
26598;SDS011;14240;51.064;16.612;2023-05-24T13:04:01;10.52;;;4.90;;
26598;SDS011;14240;51.064;16.612;2023-05-24T13:06:27;12.52;;;4.55;;
26598;SDS011;14240;51.064;16.612;2023-05-24T13:08:53;10.20;;;4.40;;
26598;SDS011;14240;51.064;16.612;2023-05-24T13:11:19;10.85;;;5.18;;
26598;SDS011;14240;51.064;16.612;2023-05-24T13:13:44;10.32;;;4.55;;
26598;SDS011;14240;51.064;16.612;2023-05-24T13:16:10;11.73;;;4.82;;
26598;SDS011;14240;51.064;16.612;2023-05-24T13:18:37;14.02;;;5.15;;
26598;SDS011;14240;51.064;16.612;2023-05-24T13:21:03;9.65;;;5.40;;
26598;SDS011;14240;51.064;16.612;2023-05-24T13:23:33;14.67;;;5.03;;
26598;SDS011;14240;51.064;16.612;2023-05-24T13:26:00;11.60;;;4.78;;
26598;SDS011;14240;51.064;16.612;2023-05-24T13:28:29;11.23;;;5.10;;
26598;SDS011;14240;51.064;16.612;2023-05-24T13:30:55;8.65;;;3.95;;
26598;SDS011;14240;51.064;16.612;2023-05-24T13:33:20;11.80;;;5.07;;
26598;SDS011;14240;51.064;16.612;2023-05-24T13:35:46;11.52;;;5.10;;
26598;SDS011;14240;51.064;16.612;2023-05-24T13:38:12;12.18;;;4.75;;
26598;SDS011;14240;51.064;16.612;2023-05-24T13:40:38;12.10;;;5.22;;
26598;SDS011;14240;51.064;16.612;2023-05-24T13:43:04;13.40;;;4.88;;
26598;SDS011;14240;51.064;16.612;2023-05-24T13:45:30;11.80;;;4.68;;
26598;SDS011;14240;51.064;16.612;2023-05-24T13:47:57;9.82;;;4.38;;
26598;SDS011;14240;51.064;16.612;2023-05-24T13:50:28;10.18;;;4.75;;
26598;SDS011;14240;51.064;16.612;2023-05-24T13:52:56;13.07;;;5.88;;
26598;SDS011;14240;51.064;16.612;2023-05-24T13:55:22;10.38;;;4.40;;
26598;SDS011;14240;51.064;16.612;2023-05-24T13:57:48;7.60;;;4.63;;
26598;SDS011;14240;51.064;16.612;2023-05-24T14:00:14;14.68;;;4.75;;
26598;SDS011;14240;51.064;16.612;2023-05-24T14:02:42;11.77;;;4.88;;
26598;SDS011;14240;51.064;16.612;2023-05-24T14:05:08;13.45;;;5.68;;
26598;SDS011;14240;51.064;16.612;2023-05-24T14:07:34;9.38;;;4.40;;
26598;SDS011;14240;51.064;16.612;2023-05-24T14:10:01;15.38;;;5.00;;
26598;SDS011;14240;51.064;16.612;2023-05-24T14:12:27;11.30;;;5.28;;
26598;SDS011;14240;51.064;16.612;2023-05-24T14:14:53;9.05;;;4.78;;
26598;SDS011;14240;51.064;16.612;2023-05-24T14:17:19;6.78;;;4.13;;
26598;SDS011;14240;51.064;16.612;2023-05-24T14:19:45;10.80;;;4.80;;
26598;SDS011;14240;51.064;16.612;2023-05-24T14:22:11;11.10;;;4.80;;
26598;SDS011;14240;51.064;16.612;2023-05-24T14:24:36;10.65;;;4.63;;
26598;SDS011;14240;51.064;16.612;2023-05-24T14:27:02;9.90;;;5.53;;
26598;SDS011;14240;51.064;16.612;2023-05-24T14:29:28;11.77;;;5.10;;
26598;SDS011;14240;51.064;16.612;2023-05-24T14:31:54;10.48;;;4.60;;
26598;SDS011;14240;51.064;16.612;2023-05-24T14:34:20;10.55;;;4.53;;
26598;SDS011;14240;51.064;16.612;2023-05-24T14:36:45;10.32;;;4.63;;
26598;SDS011;14240;51.064;16.612;2023-05-24T14:39:12;18.55;;;4.70;;
26598;SDS011;14240;51.064;16.612;2023-05-24T14:41:38;7.72;;;3.92;;
26598;SDS011;14240;51.064;16.612;2023-05-24T14:44:03;8.25;;;4.75;;
26598;SDS011;14240;51.064;16.612;2023-05-24T14:46:29;10.10;;;3.58;;